createdAt,value
2019-01-19T00:01:47.832Z,78.92
2019-01-19T00:04:30.180Z,132.60
2019-01-19T00:07:26.558Z,134.35
2019-01-19T00:10:26.539Z,84.87
2019-01-19T00:13:22.978Z,151.00
2019-01-19T00:16:04.234Z,97.77
2019-01-19T00:19:07.054Z,100.07
2019-01-19T00:22:10.578Z,119.93
2019-01-19T00:25:24.322Z,74.80
2019-01-19T00:28:05.458Z,72.13
2019-01-19T00:30:53.213Z,171.30
2019-01-19T00:33:50.558Z,96.60
2019-01-19T00:36:51.945Z,184.07
2019-01-19T00:39:55.382Z,153.20
2019-01-19T00:42:37.178Z,131.13
2019-01-19T00:45:28.386Z,164.67
2019-01-19T00:48:22.694Z,77.37
2019-01-19T00:51:28.645Z,137.47
2019-01-19T00:54:12.414Z,133.23
2019-01-19T00:57:10.977Z,89.13
2019-01-19T00:59:44.894Z,88.30
2019-01-19T01:02:54.774Z,70.57
2019-01-19T01:05:33.642Z,53.20
2019-01-19T01:09:06.030Z,53.67
2019-01-19T01:12:05.422Z,47.10
2019-01-19T01:15:07.411Z,47.17
2019-01-19T01:17:53.915Z,53.07
2019-01-19T01:20:54.355Z,85.47
2019-01-19T01:24:01.954Z,52.37
2019-01-19T01:27:25.417Z,111.97
2019-01-19T01:30:50.435Z,165.47
2019-01-19T01:33:59.034Z,180.80
2019-01-19T01:36:57.573Z,169.30
2019-01-19T01:39:49.959Z,91.87
2019-01-19T01:43:19.171Z,91.83
2019-01-19T01:46:18.068Z,48.97
2019-01-19T01:49:16.465Z,58.53
2019-01-19T01:52:13.913Z,92.57
2019-01-19T01:55:20.897Z,112.30
2019-01-19T01:58:18.551Z,88.63
2019-01-19T02:01:32.529Z,127.93
2019-01-19T02:04:43.082Z,73.17
2019-01-19T02:07:44.210Z,58.80
2019-01-19T02:10:43.529Z,137.07
2019-01-19T02:13:30.870Z,74.20
2019-01-19T02:16:44.926Z,137.87
2019-01-19T02:19:47.210Z,206.17
2019-01-19T02:22:30.209Z,91.50
2019-01-19T02:25:36.989Z,124.10
2019-01-19T02:28:38.401Z,113.93
2019-01-19T02:31:44.993Z,130.73
2019-01-19T02:35:03.825Z,49.17
2019-01-19T02:38:14.426Z,56.60
2019-01-19T02:41:30.933Z,51.33
2019-01-19T02:44:39.177Z,45.83
2019-01-19T02:47:53.436Z,99.33
2019-01-19T02:50:40.917Z,128.57
2019-01-19T02:53:38.616Z,68.60
2019-01-19T02:56:26.273Z,42.13
2019-01-19T02:59:17.732Z,178.13
2019-01-19T03:02:29.255Z,78.47
2019-01-19T03:05:18.234Z,159.53
2019-01-19T03:08:21.745Z,132.83
2019-01-19T03:11:30.183Z,101.63
2019-01-19T03:14:27.183Z,169.93
2019-01-19T03:17:32.818Z,154.73
2019-01-19T03:20:30.376Z,179.77
2019-01-19T03:23:23.218Z,157.03
2019-01-19T03:25:58.947Z,102.40
2019-01-19T03:28:45.570Z,136.80
2019-01-19T03:31:50.251Z,120.17
2019-01-19T03:34:54.761Z,132.37
2019-01-19T03:38:00.157Z,146.93
2019-01-19T03:40:38.332Z,127.80
2019-01-19T03:43:50.123Z,147.23
2019-01-19T03:47:16.432Z,74.67
2019-01-19T03:50:12.586Z,108.03
2019-01-19T03:53:15.706Z,149.77
2019-01-19T03:56:21.648Z,97.67
2019-01-19T03:59:08.435Z,205.47
2019-01-19T04:02:11.094Z,111.67
2019-01-19T04:05:11.446Z,143.13
2019-01-19T04:08:10.497Z,134.00
2019-01-19T04:11:13.971Z,137.57
2019-01-19T04:14:40.428Z,134.77
2019-01-19T04:17:56.173Z,167.37
2019-01-19T04:21:09.589Z,118.50
2019-01-19T04:23:41.790Z,90.03
2019-01-19T04:26:39.608Z,103.17
2019-01-19T04:29:09.267Z,84.90
2019-01-19T04:31:39.071Z,133.70
2019-01-19T04:34:08.931Z,264.90
2019-01-19T04:36:39.006Z,301.33
2019-01-19T04:39:11.573Z,210.73
2019-01-19T04:41:41.282Z,255.37
2019-01-19T04:44:10.919Z,249.57
2019-01-19T04:46:40.651Z,284.17
2019-01-19T04:49:10.900Z,202.90
2019-01-19T04:51:40.554Z,211.10
2019-01-19T04:54:10.268Z,259.67
2019-01-19T04:56:39.983Z,240.13
2019-01-19T04:59:09.781Z,243.77
2019-01-19T05:01:39.417Z,286.73
2019-01-19T05:04:09.086Z,363.43
2019-01-19T05:06:38.779Z,251.60
2019-01-19T05:09:09.078Z,322.47
2019-01-19T05:11:38.746Z,227.03
2019-01-19T05:14:08.486Z,121.23
2019-01-19T05:16:38.173Z,113.57
2019-01-19T05:19:07.877Z,250.67
2019-01-19T05:21:37.522Z,355.53
2019-01-19T05:24:07.381Z,308.53
2019-01-19T05:26:37.011Z,272.70
2019-01-19T05:29:06.734Z,374.43
2019-01-19T05:31:36.475Z,279.87
2019-01-19T05:34:06.173Z,276.07
2019-01-19T05:36:38.393Z,245.60
2019-01-19T05:39:08.321Z,262.43
2019-01-19T05:41:38.023Z,325.83
2019-01-19T05:44:07.719Z,270.07
2019-01-19T05:46:37.323Z,358.40
2019-01-19T05:49:06.990Z,312.07
2019-01-19T05:51:36.664Z,354.23
2019-01-19T05:54:06.767Z,393.87
2019-01-19T05:56:36.393Z,326.70
2019-01-19T05:59:06.107Z,292.93
2019-01-19T06:01:35.819Z,267.33
2019-01-19T06:04:05.634Z,300.63
2019-01-19T06:06:35.331Z,330.90
2019-01-19T06:09:07.835Z,400.07
2019-01-19T06:11:37.497Z,292.63
2019-01-19T06:14:07.482Z,330.03
2019-01-19T06:16:37.254Z,364.00
2019-01-19T06:19:07.490Z,221.30
2019-01-19T06:21:43.524Z,268.03
2019-01-19T06:24:13.243Z,309.13
2019-01-19T06:26:42.938Z,134.90
2019-01-19T06:29:13.030Z,302.97
2019-01-19T06:31:42.766Z,221.73
2019-01-19T06:34:12.377Z,198.03
2019-01-19T06:36:42.162Z,233.73
2019-01-19T06:39:11.811Z,166.27
2019-01-19T06:41:41.517Z,185.70
2019-01-19T06:44:11.125Z,186.40
2019-01-19T06:46:40.824Z,209.03
2019-01-19T06:49:10.599Z,136.77
2019-01-19T06:51:40.370Z,93.53
2019-01-19T06:54:10.966Z,38.07
2019-01-19T06:56:40.597Z,219.30
2019-01-19T06:59:17.107Z,185.07
2019-01-19T07:01:41.834Z,101.27
2019-01-19T07:04:11.462Z,179.97
2019-01-19T07:06:41.554Z,186.07
2019-01-19T07:09:11.249Z,171.93
2019-01-19T07:11:41.293Z,81.80
2019-01-19T07:14:10.927Z,226.63
2019-01-19T07:16:40.622Z,155.40
2019-01-19T07:19:10.233Z,130.77
2019-01-19T07:21:40.222Z,254.33
2019-01-19T07:24:09.862Z,237.63
2019-01-19T07:26:39.650Z,40.73
2019-01-19T07:29:09.266Z,112.37
2019-01-19T07:31:39.941Z,25.57
2019-01-19T07:34:09.705Z,79.73
2019-01-19T07:36:39.354Z,125.90
2019-01-19T07:39:09.122Z,92.20
2019-01-19T07:41:38.753Z,99.83
2019-01-19T07:44:08.456Z,91.50
2019-01-19T07:46:38.879Z,48.57
2019-01-19T07:49:08.659Z,107.07
2019-01-19T07:51:38.367Z,171.60
2019-01-19T07:54:08.568Z,199.63
2019-01-19T07:56:38.361Z,27.17
2019-01-19T07:59:08.137Z,72.77
2019-01-19T08:01:37.798Z,124.47
2019-01-19T08:04:07.569Z,235.77
2019-01-19T08:06:37.309Z,198.77
2019-01-19T08:09:08.226Z,170.00
2019-01-19T08:11:38.141Z,209.00
2019-01-19T08:14:07.864Z,172.43
2019-01-19T08:16:37.550Z,157.20
2019-01-19T08:19:07.250Z,189.53
2019-01-19T08:21:36.981Z,100.47
2019-01-19T08:24:06.669Z,223.80
2019-01-19T08:26:36.293Z,103.70
2019-01-19T08:29:06.058Z,175.43
2019-01-19T08:31:35.898Z,111.53
2019-01-19T08:34:05.519Z,221.10
2019-01-19T08:36:35.219Z,132.00
2019-01-19T08:39:07.731Z,167.47
2019-01-19T08:41:37.579Z,192.70
2019-01-19T08:44:07.869Z,51.27
2019-01-19T08:46:37.578Z,128.20
2019-01-19T08:49:07.354Z,250.07
2019-01-19T08:51:37.004Z,56.53
2019-01-19T08:54:06.612Z,271.20
2019-01-19T08:56:36.369Z,160.13
2019-01-19T08:59:07.200Z,191.40
2019-01-19T09:01:36.909Z,69.77
2019-01-19T09:04:06.759Z,180.30
2019-01-19T09:06:36.499Z,162.63
2019-01-19T09:09:07.573Z,239.57
2019-01-19T09:11:37.371Z,252.67
2019-01-19T09:14:07.058Z,148.40
2019-01-19T09:16:40.594Z,256.27
2019-01-19T09:19:08.385Z,232.93
2019-01-19T09:21:38.078Z,337.40
2019-01-19T09:24:33.338Z,244.43
2019-01-19T09:27:03.109Z,337.07
2019-01-19T09:29:32.822Z,111.70
2019-01-19T09:32:02.730Z,187.13
2019-01-19T09:34:34.048Z,225.57
2019-01-19T09:37:05.043Z,201.73
2019-01-19T09:39:34.849Z,142.20
2019-01-19T09:42:05.017Z,157.93
2019-01-19T09:44:34.907Z,196.30
2019-01-19T09:47:05.122Z,134.83
2019-01-19T09:49:34.815Z,164.90
2019-01-19T09:52:05.018Z,139.00
2019-01-19T09:54:34.701Z,93.60
2019-01-19T09:57:04.966Z,253.37
2019-01-19T09:59:34.681Z,49.93
2019-01-19T10:02:04.870Z,243.27
2019-01-19T10:04:34.623Z,214.00
2019-01-19T10:07:05.003Z,299.23
2019-01-19T10:09:34.651Z,157.40
2019-01-19T10:12:04.999Z,121.27
2019-01-19T10:14:34.723Z,244.50
2019-01-19T10:17:04.847Z,201.27
2019-01-19T10:19:34.508Z,150.57
2019-01-19T10:22:04.914Z,244.30
2019-01-19T10:24:34.570Z,206.77
2019-01-19T10:27:04.959Z,154.83
2019-01-19T10:29:34.580Z,49.30
2019-01-19T10:32:05.006Z,154.20
2019-01-19T10:34:34.728Z,136.90
2019-01-19T10:37:04.977Z,232.57
2019-01-19T10:39:34.648Z,116.37
2019-01-19T10:42:05.043Z,283.13
2019-01-19T10:44:34.677Z,249.90
2019-01-19T10:47:04.950Z,184.77
2019-01-19T10:49:34.593Z,197.33
2019-01-19T10:52:05.014Z,164.67
2019-01-19T10:54:34.646Z,79.10
2019-01-19T10:57:04.945Z,143.63
2019-01-19T10:59:34.590Z,147.13
2019-01-19T11:02:05.071Z,284.27
2019-01-19T11:04:34.874Z,96.27
2019-01-19T11:07:05.017Z,150.30
2019-01-19T11:09:34.646Z,127.87
2019-01-19T11:12:05.033Z,219.70
2019-01-19T11:14:34.780Z,202.90
2019-01-19T11:17:04.894Z,242.50
2019-01-19T11:19:34.598Z,295.07
2019-01-19T11:22:05.015Z,118.23
2019-01-19T11:24:34.632Z,207.67
2019-01-19T11:27:04.894Z,216.47
2019-01-19T11:29:34.618Z,196.50
2019-01-19T11:32:05.324Z,150.00
2019-01-19T11:34:35.094Z,64.13
2019-01-19T11:37:05.105Z,99.63
2019-01-19T11:39:34.765Z,138.57
2019-01-19T11:42:05.055Z,140.40
2019-01-19T11:44:34.953Z,119.73
2019-01-19T11:47:04.882Z,70.60
2019-01-19T11:49:34.831Z,148.60
2019-01-19T11:52:04.925Z,164.60
2019-01-19T11:54:35.037Z,110.83
2019-01-19T11:57:04.882Z,115.00
2019-01-19T11:59:34.561Z,136.77
2019-01-19T12:02:05.101Z,128.43
2019-01-19T12:04:34.855Z,87.90
2019-01-19T12:07:04.894Z,186.37
2019-01-19T12:09:34.722Z,110.93
2019-01-19T12:12:04.986Z,145.67
2019-01-19T12:14:34.673Z,130.00
2019-01-19T12:17:04.970Z,128.43
2019-01-19T12:19:34.581Z,119.23
2019-01-19T12:22:05.003Z,76.30
2019-01-19T12:24:34.694Z,118.93
2019-01-19T12:27:04.937Z,159.87
2019-01-19T12:29:34.595Z,162.17
2019-01-19T12:32:05.044Z,95.20
2019-01-19T12:34:34.779Z,192.00
2019-01-19T12:37:04.989Z,110.10
2019-01-19T12:39:34.626Z,138.80
2019-01-19T12:42:05.253Z,144.73
2019-01-19T12:44:34.977Z,140.77
2019-01-19T12:47:04.994Z,191.93
2019-01-19T12:49:34.725Z,173.70
2019-01-19T12:52:04.910Z,85.00
2019-01-19T12:54:34.567Z,149.00
2019-01-19T12:57:05.163Z,130.43
2019-01-19T12:59:34.785Z,123.57
2019-01-19T13:02:05.141Z,85.03
2019-01-19T13:04:34.842Z,170.73
2019-01-19T13:07:11.965Z,131.73
2019-01-19T13:09:54.394Z,176.57
2019-01-19T13:12:37.047Z,85.53
2019-01-19T13:15:55.840Z,145.90
2019-01-19T13:19:02.106Z,164.93
2019-01-19T13:22:19.365Z,178.57
2019-01-19T13:25:21.090Z,278.73
2019-01-19T13:28:15.762Z,390.73
2019-01-19T13:31:28.522Z,180.50
2019-01-19T13:34:34.310Z,241.90
2019-01-19T13:37:53.902Z,101.07
2019-01-19T13:41:07.016Z,115.60
2019-01-19T13:44:08.646Z,101.23
2019-01-19T13:47:18.483Z,267.33
2019-01-19T13:50:34.459Z,220.10
2019-01-19T13:53:51.254Z,228.70
2019-01-19T13:56:34.719Z,137.67
2019-01-19T13:59:46.166Z,105.27
2019-01-19T14:02:41.610Z,156.50
2019-01-19T14:05:34.081Z,193.87
2019-01-19T14:08:37.769Z,173.13
2019-01-19T14:11:47.567Z,275.30
2019-01-19T14:14:42.982Z,329.63
2019-01-19T14:18:04.361Z,375.27
2019-01-19T14:21:16.811Z,241.00
2019-01-19T14:24:41.090Z,257.33
2019-01-19T14:27:39.746Z,236.47
2019-01-19T14:30:28.905Z,324.67
2019-01-19T14:33:16.570Z,236.53
2019-01-19T14:36:22.736Z,259.70
2019-01-19T14:39:16.887Z,220.93
2019-01-19T14:42:26.750Z,188.27
2019-01-19T14:45:38.449Z,210.40
2019-01-19T14:48:47.837Z,202.50
2019-01-19T14:52:03.593Z,234.47
2019-01-19T14:55:05.650Z,203.20
2019-01-19T14:58:12.554Z,217.20
2019-01-19T15:01:16.906Z,255.27
2019-01-19T15:04:18.252Z,293.53
2019-01-19T15:07:24.474Z,313.80
2019-01-19T15:10:09.650Z,250.63
2019-01-19T15:13:13.281Z,256.27
2019-01-19T15:16:00.032Z,233.97
2019-01-19T15:18:48.065Z,236.53
2019-01-19T15:22:00.681Z,243.57
2019-01-19T15:24:46.985Z,171.77
2019-01-19T15:27:40.045Z,194.63
2019-01-19T15:30:43.936Z,146.17
2019-01-19T15:33:39.758Z,95.90
2019-01-19T15:36:45.099Z,82.90
2019-01-19T15:39:30.379Z,82.10
2019-01-19T15:42:26.325Z,84.53
2019-01-19T15:45:32.683Z,84.67
2019-01-19T15:48:38.506Z,70.77
2019-01-19T15:52:01.922Z,67.57
2019-01-19T15:55:14.873Z,78.30
2019-01-19T15:57:58.913Z,71.03
2019-01-19T16:01:01.746Z,73.53
2019-01-19T16:03:59.270Z,73.37
2019-01-19T16:07:11.719Z,80.17
2019-01-19T16:10:05.858Z,75.10
2019-01-19T16:12:46.074Z,68.20
2019-01-19T16:15:48.039Z,61.17
2019-01-19T16:18:45.841Z,71.27
2019-01-19T16:21:59.263Z,75.97
2019-01-19T16:25:07.062Z,53.97
2019-01-19T16:27:56.901Z,64.97
2019-01-19T16:31:05.375Z,58.13
2019-01-19T16:33:48.878Z,52.57
2019-01-19T16:36:57.071Z,55.58
2019-01-19T16:40:08.710Z,54.17
2019-01-19T16:43:17.738Z,38.53
2019-01-19T16:46:13.190Z,42.47
2019-01-19T16:48:55.395Z,37.87
2019-01-19T16:52:00.974Z,39.80
2019-01-19T16:54:58.877Z,33.23
2019-01-19T16:58:37.058Z,34.00
2019-01-19T17:01:17.581Z,28.57
2019-01-19T17:04:14.748Z,30.47
2019-01-19T17:07:21.594Z,28.83
2019-01-19T17:09:56.462Z,34.10
2019-01-19T17:13:01.922Z,34.13
2019-01-19T17:15:53.702Z,26.30
2019-01-19T17:18:41.962Z,30.67
2019-01-19T17:22:14.102Z,24.65
2019-01-19T17:25:13.430Z,25.93
2019-01-19T17:28:21.217Z,25.80
2019-01-19T17:31:20.708Z,25.77
2019-01-19T17:33:58.384Z,23.43
2019-01-19T17:36:38.629Z,27.97
2019-01-19T17:39:40.384Z,23.90
2019-01-19T17:42:31.193Z,21.47
2019-01-19T17:45:31.489Z,22.60
2019-01-19T17:48:19.818Z,23.47
2019-01-19T17:51:23.803Z,21.57
2019-01-19T17:54:41.642Z,26.43
2019-01-19T17:57:47.519Z,22.90
2019-01-19T18:00:59.808Z,20.77
2019-01-19T18:03:51.218Z,23.63
2019-01-19T18:07:05.840Z,24.57
2019-01-19T18:10:03.090Z,20.47
2019-01-19T18:12:44.383Z,27.60
2019-01-19T18:15:49.346Z,25.88
2019-01-19T18:19:12.565Z,25.17
2019-01-19T18:22:19.214Z,25.17
2019-01-19T18:25:02.370Z,24.90
2019-01-19T18:27:41.846Z,26.20
2019-01-19T18:30:32.422Z,24.53
2019-01-19T18:33:24.302Z,24.77
2019-01-19T18:36:05.443Z,29.37
2019-01-19T18:39:04.813Z,22.00
2019-01-19T18:42:13.287Z,21.73
2019-01-19T18:44:55.222Z,32.27
2019-01-19T18:47:49.562Z,21.17
2019-01-19T18:51:03.841Z,24.77
2019-01-19T18:53:52.912Z,31.37
2019-01-19T18:56:59.557Z,27.80
2019-01-19T18:59:44.666Z,18.87
2019-01-19T19:02:40.267Z,28.37
2019-01-19T19:05:57.293Z,22.22
2019-01-19T19:08:58.810Z,30.57
2019-01-19T19:11:36.414Z,22.10
2019-01-19T19:14:46.444Z,25.97
2019-01-19T19:17:38.107Z,27.03
2019-01-19T19:20:44.914Z,25.03
2019-01-19T19:23:28.546Z,28.70
2019-01-19T19:26:36.443Z,26.17
2019-01-19T19:29:40.077Z,25.40
2019-01-19T19:32:47.287Z,28.00
2019-01-19T19:35:42.754Z,25.32
2019-01-19T19:38:38.333Z,24.80
2019-01-19T19:41:53.989Z,24.70
2019-01-19T19:45:04.895Z,23.40
2019-01-19T19:48:09.814Z,27.37
2019-01-19T19:51:27.568Z,28.90
2019-01-19T19:53:57.378Z,30.53
2019-01-19T19:56:25.770Z,26.67
2019-01-19T19:58:55.482Z,26.57
2019-01-19T20:01:25.214Z,28.43
2019-01-19T20:03:54.921Z,28.00
2019-01-19T20:06:24.583Z,25.90
2019-01-19T20:08:54.432Z,29.10
2019-01-19T20:11:24.119Z,30.17
2019-01-19T20:13:53.859Z,29.30
2019-01-19T20:16:23.594Z,27.13
2019-01-19T20:18:53.318Z,29.67
2019-01-19T20:21:22.967Z,26.80
2019-01-19T20:23:52.689Z,25.33
2019-01-19T20:26:22.927Z,23.52
2019-01-19T20:28:52.705Z,24.70
2019-01-19T20:31:22.529Z,27.32
2019-01-19T20:33:52.331Z,31.70
2019-01-19T20:36:22.070Z,32.63
2019-01-19T20:38:51.851Z,29.77
2019-01-19T20:41:21.671Z,26.15
2019-01-19T20:43:51.378Z,27.33
2019-01-19T20:46:20.981Z,28.20
2019-01-19T20:48:51.741Z,30.60
2019-01-19T20:51:21.369Z,30.05
2019-01-19T20:53:51.090Z,33.27
2019-01-19T20:56:20.873Z,31.12
2019-01-19T20:58:50.554Z,26.57
2019-01-19T21:01:20.157Z,30.82
2019-01-19T21:03:49.863Z,30.77
2019-01-19T21:06:19.478Z,33.85
2019-01-19T21:08:49.185Z,32.73
2019-01-19T21:11:18.902Z,34.20
2019-01-19T21:13:48.582Z,33.47
2019-01-19T21:16:18.312Z,30.55
2019-01-19T21:18:48.009Z,30.77
2019-01-19T21:21:17.706Z,35.58
2019-01-19T21:23:47.350Z,36.40
2019-01-19T21:26:18.542Z,37.30
2019-01-19T21:28:49.346Z,28.90
2019-01-19T21:31:19.146Z,39.47
2019-01-19T21:33:48.947Z,35.47
2019-01-19T21:36:23.085Z,39.33
2019-01-19T21:38:52.750Z,37.20
2019-01-19T21:41:22.494Z,41.60
2019-01-19T21:43:52.183Z,44.73
2019-01-19T21:46:21.841Z,41.25
2019-01-19T21:48:51.589Z,40.40
2019-01-19T21:51:21.370Z,43.17
2019-01-19T21:53:51.121Z,39.77
2019-01-19T21:56:22.807Z,41.80
2019-01-19T21:58:52.729Z,47.10
2019-01-19T22:01:22.538Z,40.10
2019-01-19T22:03:52.249Z,44.03
2019-01-19T22:06:21.947Z,43.40
2019-01-19T22:08:51.642Z,44.83
2019-01-19T22:11:21.677Z,45.83
2019-01-19T22:13:51.373Z,44.10
2019-01-19T22:16:21.122Z,41.50
2019-01-19T22:18:50.809Z,48.43
2019-01-19T22:21:20.504Z,41.80
2019-01-19T22:23:51.234Z,48.50
2019-01-19T22:26:21.215Z,47.87
2019-01-19T22:28:50.962Z,49.20
2019-01-19T22:31:20.685Z,48.98
2019-01-19T22:33:50.408Z,49.83
2019-01-19T22:36:20.394Z,58.00
2019-01-19T22:38:50.109Z,49.53
2019-01-19T22:41:19.817Z,54.05
2019-01-19T22:43:49.534Z,53.10
2019-01-19T22:46:19.328Z,54.03
2019-01-19T22:48:48.953Z,54.17
2019-01-19T22:51:18.738Z,54.18
2019-01-19T22:53:48.361Z,57.97
2019-01-19T22:56:18.082Z,49.10
2019-01-19T22:58:47.889Z,51.47
2019-01-19T23:02:08.216Z,48.25
2019-01-19T23:04:38.007Z,53.50
2019-01-19T23:07:08.042Z,48.00
2019-01-19T23:09:37.702Z,54.67
2019-01-19T23:12:07.392Z,61.10
2019-01-19T23:14:37.513Z,53.87
2019-01-19T23:17:07.269Z,47.70
2019-01-19T23:19:37.859Z,58.73
2019-01-19T23:22:07.487Z,57.90
2019-01-19T23:24:37.462Z,51.80
2019-01-19T23:27:07.968Z,53.33
2019-01-19T23:29:37.566Z,50.70
2019-01-19T23:32:07.353Z,53.73
2019-01-19T23:34:37.010Z,57.97
2019-01-19T23:37:06.741Z,52.83
2019-01-19T23:39:36.356Z,56.20
2019-01-19T23:42:06.055Z,57.47
2019-01-19T23:44:35.675Z,50.53
2019-01-19T23:47:05.509Z,55.97
2019-01-19T23:49:35.125Z,55.70
2019-01-19T23:52:05.070Z,55.53
2019-01-19T23:54:34.773Z,57.70
2019-01-19T23:57:05.079Z,59.77
2019-01-19T23:59:34.696Z,53.93
